Time;durP1;ratioP1;P1;durP2;ratioP2;P2;SDS_P1;SDS_P2;PMS_P1;PMS_P2;Temp;Humidity;BMP_temperature;BMP_pressure;BME280_temperature;BME280_humidity;BME280_pressure;Samples;Min_cycle;Max_cycle;Signal;HPM_P1;HPM_P2
2023/11/01 00:00:23;;;;;;;11.57;2.40;;;13.10;99.90;;;;;;7281412;19;20190;-78
2023/11/01 00:02:48;;;;;;;10.63;2.17;;;13.00;99.90;;;;;;7280930;19;20663;-78
2023/11/01 00:05:14;;;;;;;13.10;2.33;;;12.80;99.90;;;;;;7282515;19;20338;-78
2023/11/01 00:07:40;;;;;;;11.43;2.40;;;12.70;99.90;;;;;;7280600;19;20307;-78
2023/11/01 00:10:06;;;;;;;10.53;2.50;;;12.60;99.90;;;;;;7303690;19;20256;-79
2023/11/01 00:12:32;;;;;;;9.67;2.60;;;12.70;99.90;;;;;;7280690;19;20186;-78
2023/11/01 00:14:58;;;;;;;9.87;2.70;;;12.80;99.90;;;;;;7286747;19;20211;-78
2023/11/01 00:17:24;;;;;;;9.10;2.50;;;12.80;99.90;;;;;;7287561;19;20682;-79
2023/11/01 00:19:50;;;;;;;12.00;2.97;;;12.80;99.90;;;;;;7288702;19;20189;-79
2023/11/01 00:22:16;;;;;;;13.77;2.70;;;12.80;99.90;;;;;;7288680;19;20228;-78
2023/11/01 00:24:41;;;;;;;14.47;3.17;;;12.80;99.90;;;;;;7288004;19;20711;-78
2023/11/01 00:27:07;;;;;;;8.90;2.40;;;12.70;99.90;;;;;;7300383;19;20303;-79
2023/11/01 00:29:33;;;;;;;10.10;2.27;;;12.70;99.90;;;;;;7306846;19;20229;-79
2023/11/01 00:31:59;;;;;;;10.13;2.47;;;12.80;99.90;;;;;;7286093;19;20200;-78
2023/11/01 00:34:24;;;;;;;10.67;2.67;;;12.70;99.90;;;;;;7287145;19;20192;-79
2023/11/01 00:36:50;;;;;;;11.53;2.43;;;12.80;99.90;;;;;;7288675;19;20607;-78
2023/11/01 00:39:16;;;;;;;13.33;2.40;;;12.80;99.90;;;;;;7286677;19;20196;-78
2023/11/01 00:41:42;;;;;;;9.97;2.70;;;12.80;99.90;;;;;;7285740;19;20660;-79
2023/11/01 00:44:08;;;;;;;9.83;2.57;;;12.90;99.90;;;;;;7308578;19;20192;-78
2023/11/01 00:46:34;;;;;;;13.87;2.73;;;12.90;99.90;;;;;;7286003;19;20209;-78
2023/11/01 00:49:00;;;;;;;10.23;2.67;;;13.00;99.90;;;;;;7284228;19;20181;-79
2023/11/01 00:51:25;;;;;;;13.13;2.60;;;13.10;99.90;;;;;;7286200;19;20213;-78
2023/11/01 00:53:51;;;;;;;13.13;2.77;;;13.20;99.90;;;;;;7286588;19;20299;-79
2023/11/01 00:56:17;;;;;;;12.47;2.27;;;13.30;99.90;;;;;;7285688;19;20192;-78
2023/11/01 00:58:42;;;;;;;14.00;2.73;;;13.30;99.90;;;;;;7285921;19;20256;-79
2023/11/01 01:01:08;;;;;;;10.90;2.67;;;13.30;99.90;;;;;;7306149;19;20278;-79
2023/11/01 01:03:34;;;;;;;15.40;2.83;;;13.30;99.90;;;;;;7284301;19;20216;-78
2023/11/01 01:06:00;;;;;;;9.53;2.93;;;13.30;99.90;;;;;;7284168;19;20213;-78
2023/11/01 01:08:26;;;;;;;15.37;3.53;;;13.50;99.90;;;;;;7281582;19;20186;-78
2023/11/01 01:10:52;;;;;;;12.50;3.93;;;13.50;99.90;;;;;;7286468;19;20258;-78
2023/11/01 01:13:17;;;;;;;13.43;4.23;;;13.40;99.90;;;;;;7283350;19;20182;-78
2023/11/01 01:15:43;;;;;;;18.70;3.90;;;13.40;99.90;;;;;;7284656;19;20205;-80
2023/11/01 01:18:09;;;;;;;16.23;3.80;;;13.40;99.90;;;;;;7303263;19;20193;-78
2023/11/01 01:20:35;;;;;;;17.33;3.63;;;13.30;99.90;;;;;;7295319;19;20749;-78
2023/11/01 01:23:00;;;;;;;16.10;3.77;;;13.30;99.90;;;;;;7284386;19;20192;-78
2023/11/01 01:25:26;;;;;;;17.63;3.57;;;13.40;99.90;;;;;;7284288;19;20185;-78
2023/11/01 01:27:52;;;;;;;18.57;3.97;;;13.50;99.90;;;;;;7285230;19;20207;-78
2023/11/01 01:30:18;;;;;;;21.30;4.00;;;13.60;99.90;;;;;;7284646;19;20179;-78
2023/11/01 01:32:43;;;;;;;19.93;3.30;;;13.70;99.90;;;;;;7280573;19;20224;-78
2023/11/01 01:35:10;;;;;;;19.07;3.60;;;13.80;99.90;;;;;;7302551;19;20656;-78
2023/11/01 01:37:36;;;;;;;23.60;4.47;;;13.80;99.90;;;;;;7284338;19;20234;-78
2023/11/01 01:40:02;;;;;;;17.67;3.67;;;13.80;99.90;;;;;;7283388;19;20215;-78
2023/11/01 01:42:28;;;;;;;19.90;4.37;;;13.80;99.90;;;;;;7284209;19;20282;-78
2023/11/01 01:44:54;;;;;;;21.33;3.87;;;13.70;99.90;;;;;;7284267;19;20198;-78
2023/11/01 01:47:20;;;;;;;21.93;4.03;;;13.70;99.90;;;;;;7283198;19;20186;-78
2023/11/01 01:49:46;;;;;;;17.77;3.80;;;13.70;99.90;;;;;;7283626;19;20592;-78
2023/11/01 01:52:12;;;;;;;24.43;4.13;;;13.80;99.90;;;;;;7295340;19;22542;-78
2023/11/01 01:54:39;;;;;;;20.53;4.30;;;13.80;99.90;;;;;;7303295;19;20199;-79
2023/11/01 01:57:05;;;;;;;22.30;4.00;;;13.80;99.90;;;;;;7284302;19;20187;-78
2023/11/01 01:59:31;;;;;;;17.80;3.67;;;13.80;99.90;;;;;;7282833;19;20181;-78
2023/11/01 02:01:57;;;;;;;21.20;3.27;;;13.90;99.90;;;;;;7281387;19;20656;-78
2023/11/01 02:04:23;;;;;;;21.23;3.40;;;13.90;99.90;;;;;;7282775;19;20300;-78
2023/11/01 02:06:48;;;;;;;13.70;2.90;;;13.90;99.90;;;;;;7281075;19;20563;-78
2023/11/01 02:09:17;;;;;;;14.63;3.10;;;14.00;99.90;;;;;;7284009;19;20194;-78
2023/11/01 02:11:44;;;;;;;23.30;3.27;;;14.00;99.90;;;;;;7286546;19;20185;-78
2023/11/01 02:14:11;;;;;;;12.07;2.83;;;14.00;99.90;;;;;;7304889;19;20191;-78
2023/11/01 02:16:38;;;;;;;19.00;3.00;;;14.00;99.90;;;;;;7282146;19;20188;-79
2023/11/01 02:19:09;;;;;;;18.27;3.73;;;14.00;99.90;;;;;;7281521;19;20182;-78
2023/11/01 02:21:35;;;;;;;19.77;3.23;;;14.10;99.90;;;;;;7282397;19;20189;-78
2023/11/01 02:24:01;;;;;;;18.00;2.93;;;14.00;99.90;;;;;;7279424;19;20528;-78
2023/11/01 02:26:27;;;;;;;14.77;2.57;;;14.10;99.90;;;;;;7281454;19;20270;-78
2023/11/01 02:28:53;;;;;;;13.43;2.80;;;14.00;99.90;;;;;;7280913;19;20201;-79
2023/11/01 02:31:19;;;;;;;14.80;2.77;;;14.00;99.90;;;;;;7281168;19;20203;-78
2023/11/01 02:33:45;;;;;;;16.60;2.67;;;14.00;99.90;;;;;;7279125;19;20199;-78
2023/11/01 02:36:10;;;;;;;18.50;2.80;;;14.00;99.90;;;;;;7302307;19;20187;-78
2023/11/01 02:38:36;;;;;;;14.80;2.50;;;14.10;99.90;;;;;;7282661;19;20681;-78
2023/11/01 02:41:02;;;;;;;19.20;2.73;;;14.10;99.90;;;;;;7283107;19;20250;-78
2023/11/01 02:43:28;;;;;;;15.87;2.90;;;14.10;99.90;;;;;;7282214;19;20198;-78
2023/11/01 02:45:54;;;;;;;19.63;2.93;;;14.10;99.90;;;;;;7282416;19;20186;-78
2023/11/01 02:48:21;;;;;;;22.67;3.27;;;14.20;99.90;;;;;;7280844;19;20194;-78
2023/11/01 02:50:46;;;;;;;18.47;3.23;;;14.20;99.90;;;;;;7282322;19;20184;-78
2023/11/01 02:53:12;;;;;;;17.47;2.67;;;14.10;99.90;;;;;;7303616;19;20191;-78
2023/11/01 02:55:38;;;;;;;18.97;3.60;;;14.10;99.90;;;;;;7282382;19;20188;-78
2023/11/01 02:58:04;;;;;;;20.30;3.40;;;14.00;99.90;;;;;;7282994;19;20540;-78
2023/11/01 03:00:30;;;;;;;23.57;4.20;;;14.00;99.90;;;;;;7283987;19;20618;-78
2023/11/01 03:02:57;;;;;;;20.27;3.53;;;14.00;99.90;;;;;;7280601;19;20534;-78
2023/11/01 03:05:25;;;;;;;12.03;3.10;;;14.10;99.90;;;;;;7283729;19;20187;-78
2023/11/01 03:07:52;;;;;;;17.07;2.90;;;14.10;99.90;;;;;;7281229;19;20191;-78
2023/11/01 03:10:17;;;;;;;19.43;3.27;;;14.10;99.90;;;;;;7282300;19;20700;-78
2023/11/01 03:12:43;;;;;;;19.30;2.90;;;14.10;99.90;;;;;;7303790;19;20269;-78
2023/11/01 03:15:11;;;;;;;14.83;3.30;;;14.20;99.90;;;;;;7282607;19;20180;-79
2023/11/01 03:17:37;;;;;;;17.50;3.20;;;14.20;99.90;;;;;;7282735;19;20187;-78
2023/11/01 03:20:05;;;;;;;12.37;2.70;;;14.20;99.90;;;;;;7282576;19;20275;-78
2023/11/01 03:22:31;;;;;;;14.97;2.70;;;14.20;99.90;;;;;;7281308;19;20197;-78
2023/11/01 03:24:58;;;;;;;22.70;4.03;;;14.20;99.90;;;;;;7280475;19;20198;-78
2023/11/01 03:27:23;;;;;;;20.37;3.63;;;14.20;99.90;;;;;;7279484;19;20186;-78
2023/11/01 03:29:52;;;;;;;18.80;3.63;;;14.20;99.90;;;;;;7282472;19;20186;-78
2023/11/01 03:32:18;;;;;;;21.67;3.83;;;14.30;99.90;;;;;;7280973;19;20186;-79
2023/11/01 03:34:45;;;;;;;19.93;3.57;;;14.30;99.90;;;;;;7303306;19;20645;-78
2023/11/01 03:37:10;;;;;;;24.93;4.97;;;14.20;99.90;;;;;;7282033;19;20754;-78
2023/11/01 03:39:36;;;;;;;16.67;3.60;;;14.20;99.90;;;;;;7279109;19;20248;-78
2023/11/01 03:42:04;;;;;;;15.17;3.53;;;14.10;99.90;;;;;;7281247;19;20216;-78
2023/11/01 03:44:33;;;;;;;20.27;3.13;;;14.10;99.90;;;;;;7282048;19;20206;-78
2023/11/01 03:47:03;;;;;;;19.27;3.27;;;14.10;99.90;;;;;;7279683;19;20187;-78
2023/11/01 03:49:29;;;;;;;18.70;3.17;;;14.00;99.90;;;;;;7283883;19;20185;-78
2023/11/01 03:52:01;;;;;;;18.23;2.87;;;14.00;99.90;;;;;;7288419;19;20188;-77
2023/11/01 03:54:27;;;;;;;20.80;3.00;;;14.00;99.90;;;;;;7287179;19;20194;-79
2023/11/01 03:56:53;;;;;;;15.93;3.07;;;13.90;99.90;;;;;;7287964;19;20197;-78
2023/11/01 03:59:19;;;;;;;24.33;3.37;;;13.80;99.90;;;;;;7287959;19;20654;-78
2023/11/01 04:01:45;;;;;;;21.97;3.17;;;13.90;99.90;;;;;;7309483;19;20205;-78
2023/11/01 04:04:10;;;;;;;16.07;2.60;;;14.00;99.90;;;;;;7283885;19;20227;-77
2023/11/01 04:06:37;;;;;;;18.90;2.60;;;14.00;99.90;;;;;;7286070;19;20258;-78
2023/11/01 04:09:03;;;;;;;22.10;3.20;;;13.90;99.90;;;;;;7288164;19;20195;-78
2023/11/01 04:11:30;;;;;;;17.90;2.77;;;14.00;99.90;;;;;;7288417;19;20188;-78
2023/11/01 04:13:56;;;;;;;17.23;2.60;;;14.00;99.90;;;;;;7286558;19;20245;-78
2023/11/01 04:16:22;;;;;;;18.33;2.47;;;14.00;99.90;;;;;;7287712;19;20190;-78
2023/11/01 04:18:49;;;;;;;13.80;2.30;;;14.00;99.90;;;;;;7286573;19;20641;-78
2023/11/01 04:21:15;;;;;;;19.10;2.63;;;14.10;99.90;;;;;;7307959;19;20195;-78
2023/11/01 04:23:40;;;;;;;14.07;2.37;;;14.10;99.90;;;;;;7285473;19;20183;-77
2023/11/01 04:26:06;;;;;;;18.23;2.50;;;14.00;99.90;;;;;;7284785;19;20310;-78
2023/11/01 04:28:32;;;;;;;14.43;2.10;;;14.00;99.90;;;;;;7283182;19;20179;-77
2023/11/01 04:30:59;;;;;;;21.13;2.70;;;14.00;99.90;;;;;;7286825;19;20250;-78
2023/11/01 04:33:24;;;;;;;19.53;2.60;;;13.90;99.90;;;;;;7285235;19;20202;-77
2023/11/01 04:35:53;;;;;;;17.70;2.93;;;14.00;99.90;;;;;;7285286;19;20186;-78
2023/11/01 04:38:20;;;;;;;14.03;2.30;;;14.10;99.90;;;;;;7287122;19;20190;-78
2023/11/01 04:40:46;;;;;;;15.30;2.47;;;14.10;99.90;;;;;;7306461;19;20306;-78
2023/11/01 04:43:11;;;;;;;17.60;3.07;;;14.10;99.90;;;;;;7286402;19;20198;-78
2023/11/01 04:45:37;;;;;;;18.27;2.63;;;14.20;99.90;;;;;;7286961;19;20198;-78
2023/11/01 04:48:03;;;;;;;18.63;3.03;;;14.20;99.90;;;;;;7285867;19;20852;-78
2023/11/01 04:50:29;;;;;;;18.70;3.67;;;14.20;99.90;;;;;;7285446;19;20211;-78
2023/11/01 04:52:55;;;;;;;18.23;2.50;;;14.20;99.90;;;;;;7285444;19;20307;-78
2023/11/01 04:55:21;;;;;;;15.50;2.57;;;14.10;99.90;;;;;;7284327;19;20178;-78
2023/11/01 04:57:47;;;;;;;18.37;2.77;;;14.10;99.90;;;;;;7305663;19;20187;-78
2023/11/01 05:00:15;;;;;;;15.47;2.37;;;14.20;99.90;;;;;;7285560;19;20203;-78
2023/11/01 05:02:47;;;;;;;14.90;3.03;;;14.20;99.90;;;;;;7281825;19;20208;-78
2023/11/01 05:05:14;;;;;;;13.73;2.60;;;14.20;99.90;;;;;;7287016;19;20982;-78
2023/11/01 05:07:40;;;;;;;19.87;2.50;;;14.20;99.90;;;;;;7285146;19;20204;-78
2023/11/01 05:10:07;;;;;;;19.20;2.43;;;14.10;99.90;;;;;;7283585;19;20626;-78
2023/11/01 05:12:33;;;;;;;14.97;2.50;;;14.10;99.90;;;;;;7286762;19;20646;-77
2023/11/01 05:15:00;;;;;;;20.33;2.47;;;14.20;99.90;;;;;;7285450;19;20195;-78
2023/11/01 05:17:25;;;;;;;18.00;2.77;;;14.30;99.90;;;;;;7282445;19;20195;-78
2023/11/01 05:19:51;;;;;;;16.57;2.50;;;14.20;99.90;;;;;;7282534;19;20186;-78
2023/11/01 05:22:17;;;;;;;16.43;2.40;;;14.20;99.90;;;;;;7307373;19;20193;-78
2023/11/01 05:24:46;;;;;;;18.27;2.77;;;14.20;99.90;;;;;;7284523;19;20199;-78
2023/11/01 05:27:14;;;;;;;23.20;2.77;;;14.30;99.90;;;;;;7284197;19;20645;-78
2023/11/01 05:29:40;;;;;;;10.10;2.07;;;14.20;99.90;;;;;;7284388;19;20795;-78
2023/11/01 05:32:06;;;;;;;18.73;2.47;;;14.10;99.90;;;;;;7285636;19;21003;-78
2023/11/01 05:34:32;;;;;;;12.97;2.00;;;14.10;99.90;;;;;;7282643;19;20676;-78
2023/11/01 05:36:57;;;;;;;12.37;2.37;;;14.10;99.90;;;;;;7283933;19;20194;-78
2023/11/01 05:39:24;;;;;;;17.13;2.70;;;14.10;99.90;;;;;;7283086;19;20212;-77
2023/11/01 05:41:52;;;;;;;18.70;2.70;;;14.00;99.90;;;;;;7284227;19;20208;-78
2023/11/01 05:44:21;;;;;;;13.07;2.90;;;14.00;99.90;;;;;;7298997;19;20185;-78
2023/11/01 05:46:47;;;;;;;19.17;2.47;;;14.00;99.90;;;;;;7305740;19;20214;-78
2023/11/01 05:49:14;;;;;;;18.70;2.50;;;13.90;99.90;;;;;;7285271;19;20210;-78
2023/11/01 05:51:40;;;;;;;13.83;2.20;;;14.00;99.90;;;;;;7286462;19;20188;-77
2023/11/01 05:54:06;;;;;;;14.90;2.10;;;14.00;99.90;;;;;;7281602;19;20187;-78
2023/11/01 05:56:32;;;;;;;14.63;2.10;;;14.00;99.90;;;;;;7284651;19;20195;-77
2023/11/01 05:58:57;;;;;;;15.03;2.63;;;14.00;99.90;;;;;;7283801;19;20662;-78
2023/11/01 06:01:26;;;;;;;12.07;2.27;;;14.00;99.90;;;;;;7283205;19;20302;-78
2023/11/01 06:03:56;;;;;;;12.43;2.20;;;13.90;99.90;;;;;;7283115;19;20195;-78
2023/11/01 06:06:25;;;;;;;14.00;2.13;;;13.90;99.90;;;;;;7281996;19;20198;-77
2023/11/01 06:08:51;;;;;;;13.83;2.13;;;13.80;99.90;;;;;;7282485;19;20221;-77
2023/11/01 06:11:17;;;;;;;10.47;1.97;;;13.90;99.90;;;;;;7303352;19;20186;-78
2023/11/01 06:13:43;;;;;;;12.43;2.00;;;13.80;99.90;;;;;;7283547;19;20190;-78
2023/11/01 06:16:10;;;;;;;12.00;2.20;;;13.80;99.90;;;;;;7282664;19;20185;-78
2023/11/01 06:18:36;;;;;;;15.63;2.47;;;13.80;99.90;;;;;;7283976;19;20199;-78
2023/11/01 06:21:03;;;;;;;14.03;2.13;;;13.80;99.90;;;;;;7282329;19;20203;-77
2023/11/01 06:23:29;;;;;;;11.70;2.27;;;13.90;99.90;;;;;;7282251;19;20199;-78
2023/11/01 06:25:54;;;;;;;12.70;1.93;;;13.90;99.90;;;;;;7281133;19;20319;-78
2023/11/01 06:28:20;;;;;;;14.03;2.00;;;13.90;99.90;;;;;;7286504;19;20317;-77
2023/11/01 06:30:46;;;;;;;16.60;2.33;;;13.90;99.90;;;;;;7305316;19;20190;-78
2023/11/01 06:33:12;;;;;;;14.97;2.10;;;13.90;99.90;;;;;;7279639;19;20200;-78
2023/11/01 06:35:38;;;;;;;15.27;2.20;;;13.90;99.90;;;;;;7280605;19;20260;-78
2023/11/01 06:38:03;;;;;;;13.27;2.13;;;13.90;99.90;;;;;;7282322;19;20193;-78
2023/11/01 06:40:30;;;;;;;16.00;1.90;;;13.90;99.90;;;;;;7280731;19;20189;-77
2023/11/01 06:42:55;;;;;;;15.27;2.03;;;13.90;99.90;;;;;;7281058;19;21053;-77
2023/11/01 06:45:22;;;;;;;19.00;2.50;;;13.90;99.90;;;;;;7281452;19;20261;-77
2023/11/01 06:47:48;;;;;;;12.90;2.20;;;13.90;99.90;;;;;;7302871;19;20193;-78
2023/11/01 06:50:13;;;;;;;18.47;2.10;;;13.90;99.90;;;;;;7280806;19;20604;-78
2023/11/01 06:52:44;;;;;;;14.67;2.10;;;13.90;99.90;;;;;;7279066;19;20202;-77
2023/11/01 06:55:11;;;;;;;18.83;2.37;;;13.90;99.90;;;;;;7279886;19;20190;-78
2023/11/01 06:57:38;;;;;;;13.43;2.20;;;14.10;99.90;;;;;;7280866;19;20190;-78
2023/11/01 07:00:05;;;;;;;16.03;2.07;;;14.10;99.90;;;;;;7281214;19;20219;-77
2023/11/01 07:02:31;;;;;;;13.47;2.30;;;14.10;99.90;;;;;;7280119;19;20653;-77
2023/11/01 07:04:57;;;;;;;14.27;2.00;;;14.10;99.90;;;;;;7279122;19;20275;-78
2023/11/01 07:07:23;;;;;;;16.93;2.63;;;14.10;99.90;;;;;;7279449;19;20212;-77
2023/11/01 07:09:49;;;;;;;11.80;2.17;;;14.10;99.90;;;;;;7301750;19;20194;-77
2023/11/01 07:12:14;;;;;;;12.57;1.93;;;14.10;99.90;;;;;;7290162;19;20188;-78
2023/11/01 07:14:40;;;;;;;12.53;1.90;;;14.00;99.90;;;;;;7282388;19;20196;-78
2023/11/01 07:17:06;;;;;;;14.77;2.13;;;14.00;99.90;;;;;;7281181;19;20656;-78
2023/11/01 07:19:32;;;;;;;13.23;2.10;;;14.00;99.90;;;;;;7282431;19;20225;-77
2023/11/01 07:21:57;;;;;;;12.60;2.23;;;14.00;99.90;;;;;;7278647;19;20198;-78
2023/11/01 07:24:23;;;;;;;11.77;1.77;;;14.10;99.90;;;;;;7283803;19;20190;-78
2023/11/01 07:26:49;;;;;;;11.20;1.90;;;14.10;99.90;;;;;;7304574;19;20187;-76
2023/11/01 07:29:14;;;;;;;12.47;2.00;;;14.10;99.90;;;;;;7294705;19;20195;-78
2023/11/01 07:31:40;;;;;;;14.93;2.20;;;14.10;99.90;;;;;;7285685;19;20207;-77
2023/11/01 07:34:06;;;;;;;12.20;2.20;;;14.20;99.90;;;;;;7285907;19;20215;-77
2023/11/01 07:36:32;;;;;;;14.97;2.07;;;14.20;99.90;;;;;;7284548;19;20222;-77
2023/11/01 07:38:57;;;;;;;18.03;2.43;;;14.10;99.90;;;;;;7286678;19;20265;-77
2023/11/01 07:41:23;;;;;;;13.90;1.80;;;14.20;99.90;;;;;;7283433;19;20215;-77
2023/11/01 07:43:49;;;;;;;14.63;2.07;;;14.30;99.90;;;;;;7305324;19;20198;-78
2023/11/01 07:46:15;;;;;;;12.43;2.00;;;14.30;99.90;;;;;;7294763;19;20301;-78
2023/11/01 07:48:41;;;;;;;13.07;1.67;;;14.30;99.90;;;;;;7285941;19;20319;-78
2023/11/01 07:51:07;;;;;;;15.67;1.90;;;14.30;99.90;;;;;;7284011;19;20659;-78
2023/11/01 07:53:35;;;;;;;17.83;2.20;;;14.40;99.90;;;;;;7285051;19;20190;-79
2023/11/01 07:56:05;;;;;;;16.30;2.03;;;14.50;99.90;;;;;;7284502;19;20211;-77
2023/11/01 07:58:31;;;;;;;10.20;1.30;;;14.70;99.90;;;;;;7227599;19;20657;-77
2023/11/01 08:00:58;;;;;;;10.77;1.60;;;14.60;99.90;;;;;;7285621;19;20195;-77
2023/11/01 08:03:24;;;;;;;14.50;1.60;;;14.70;99.90;;;;;;7287405;19;20189;-77
2023/11/01 08:05:50;;;;;;;11.17;1.80;;;14.60;99.90;;;;;;7293440;19;20191;-77
2023/11/01 08:08:16;;;;;;;12.33;1.80;;;14.60;99.90;;;;;;7304957;19;20670;-78
2023/11/01 08:10:42;;;;;;;9.13;1.83;;;14.60;99.90;;;;;;7284004;19;20322;-77
2023/11/01 08:13:08;;;;;;;15.93;2.13;;;14.60;99.90;;;;;;7283064;19;20754;-77
2023/11/01 08:15:33;;;;;;;12.17;1.57;;;14.50;99.90;;;;;;7279192;19;20200;-77
2023/11/01 08:18:02;;;;;;;11.97;1.60;;;14.60;99.90;;;;;;7284567;19;20194;-77
2023/11/01 08:20:30;;;;;;;8.20;1.70;;;14.60;99.90;;;;;;7280070;19;20195;-78
2023/11/01 08:22:56;;;;;;;19.80;2.20;;;14.60;99.90;;;;;;7285747;19;20194;-77
2023/11/01 08:25:23;;;;;;;10.70;1.73;;;14.60;99.90;;;;;;7280269;19;20202;-77
2023/11/01 08:27:49;;;;;;;10.80;1.70;;;14.60;99.90;;;;;;7306924;19;20186;-77
2023/11/01 08:30:15;;;;;;;9.47;1.50;;;14.60;99.90;;;;;;7284470;19;20780;-77
2023/11/01 08:32:41;;;;;;;11.93;1.87;;;14.70;99.90;;;;;;7282623;19;20198;-77
2023/11/01 08:35:08;;;;;;;13.53;1.90;;;14.60;99.90;;;;;;7280415;19;20191;-77
2023/11/01 08:37:35;;;;;;;8.87;1.77;;;14.70;99.90;;;;;;7285374;19;20194;-77
2023/11/01 08:40:00;;;;;;;12.90;1.83;;;14.70;99.90;;;;;;7282120;19;20214;-77
2023/11/01 08:42:26;;;;;;;13.40;1.90;;;14.70;99.90;;;;;;7284277;19;20301;-78
2023/11/01 08:44:52;;;;;;;12.47;1.60;;;14.80;99.90;;;;;;7283012;19;20187;-76
2023/11/01 08:47:39;;;;;;;11.80;2.00;;;14.80;99.90;;;;;;7303424;19;20553;-77
2023/11/01 08:50:06;;;;;;;12.37;1.93;;;14.80;99.90;;;;;;7179716;19;2004440;-77
2023/11/01 08:52:32;;;;;;;11.03;2.00;;;14.80;99.90;;;;;;7281409;19;20198;-77
2023/11/01 08:54:59;;;;;;;12.60;2.00;;;14.90;99.90;;;;;;7281987;19;20193;-77
2023/11/01 08:57:26;;;;;;;15.90;2.07;;;15.00;99.90;;;;;;7283442;19;20191;-77
2023/11/01 08:59:53;;;;;;;13.07;1.87;;;15.00;99.90;;;;;;7284510;19;20655;-78
2023/11/01 09:02:20;;;;;;;9.40;1.60;;;15.10;99.90;;;;;;7305194;19;20194;-77
2023/11/01 09:04:46;;;;;;;11.93;2.00;;;15.20;99.90;;;;;;7284325;19;20196;-77
2023/11/01 09:07:11;;;;;;;12.23;1.80;;;15.10;99.90;;;;;;7283477;19;20196;-77
2023/11/01 09:09:38;;;;;;;9.63;1.40;;;15.30;99.90;;;;;;7281738;19;20188;-77
2023/11/01 09:12:04;;;;;;;12.57;1.80;;;15.30;99.90;;;;;;7280529;19;20204;-77
2023/11/01 09:14:29;;;;;;;12.47;1.70;;;15.50;99.90;;;;;;7284042;19;20680;-77
2023/11/01 09:16:55;;;;;;;8.63;1.47;;;15.40;99.90;;;;;;7281887;19;20671;-77
2023/11/01 09:19:21;;;;;;;19.50;2.33;;;15.40;99.90;;;;;;7296217;19;20206;-77
2023/11/01 09:21:47;;;;;;;12.83;1.80;;;15.60;99.90;;;;;;7297277;19;20546;-77
2023/11/01 09:24:13;;;;;;;10.53;1.67;;;15.80;99.90;;;;;;7281661;19;20287;-77
2023/11/01 09:26:38;;;;;;;8.57;1.40;;;16.00;99.90;;;;;;7281669;19;20199;-76
2023/11/01 09:29:04;;;;;;;9.83;1.50;;;16.20;99.90;;;;;;7305852;19;20192;-90
2023/11/01 09:31:37;;;;;;;11.63;1.50;;;16.20;99.90;;;;;;7285984;19;20194;-90
2023/11/01 09:34:03;;;;;;;13.80;1.90;;;16.20;99.90;;;;;;7289502;19;20196;-89
2023/11/01 09:36:28;;;;;;;9.07;1.50;;;16.20;99.90;;;;;;7286334;19;20184;-90
2023/11/01 09:38:54;;;;;;;7.73;1.63;;;16.40;99.90;;;;;;7285623;19;20193;-89
2023/11/01 09:41:28;;;;;;;10.53;1.57;;;16.30;99.90;;;;;;7305505;19;20218;-90
2023/11/01 09:44:02;;;;;;;12.87;1.80;;;16.40;99.90;;;;;;7289354;19;20195;-89
2023/11/01 09:46:29;;;;;;;9.87;1.53;;;16.50;99.90;;;;;;7282176;19;20254;-89
2023/11/01 09:48:55;;;;;;;6.80;1.40;;;16.80;99.90;;;;;;7285317;19;20278;-89
2023/11/01 09:51:21;;;;;;;8.33;1.30;;;17.20;99.90;;;;;;7297457;19;20203;-89
2023/11/01 09:53:47;;;;;;;11.00;1.70;;;17.30;99.90;;;;;;7306263;19;20204;-89
2023/11/01 09:56:14;;;;;;;11.30;1.83;;;17.20;99.90;;;;;;7282081;19;20194;-89
2023/11/01 09:58:41;;;;;;;6.90;1.37;;;17.20;99.90;;;;;;7283353;19;20971;-89
2023/11/01 10:01:07;;;;;;;8.67;1.37;;;17.10;99.90;;;;;;7286344;19;20219;-89
2023/11/01 10:03:34;;;;;;;12.90;1.70;;;16.70;99.90;;;;;;7284234;19;20228;-89
2023/11/01 10:05:59;;;;;;;9.00;1.60;;;16.70;99.90;;;;;;7283034;19;20230;-89
2023/11/01 10:08:25;;;;;;;10.87;1.53;;;16.70;99.90;;;;;;7282988;19;20195;-90
2023/11/01 10:10:50;;;;;;;8.17;1.70;;;16.90;99.90;;;;;;7296376;19;20203;-90
2023/11/01 10:13:16;;;;;;;11.03;1.50;;;17.20;99.90;;;;;;7301614;19;20757;-89
2023/11/01 10:15:42;;;;;;;6.67;1.30;;;17.30;99.90;;;;;;7283844;19;20198;-89
2023/11/01 10:18:08;;;;;;;8.27;1.33;;;17.50;99.90;;;;;;7283948;19;20193;-89
2023/11/01 10:20:33;;;;;;;11.40;1.30;;;17.50;99.90;;;;;;7283314;19;20198;-90
2023/11/01 10:22:59;;;;;;;7.83;1.70;;;17.60;99.90;;;;;;7283440;19;20295;-89
2023/11/01 10:25:25;;;;;;;3.37;1.27;;;18.20;99.90;;;;;;7285693;19;20189;-90
2023/11/01 10:27:51;;;;;;;8.43;1.63;;;18.50;99.90;;;;;;7295831;19;20193;-90
2023/11/01 10:30:17;;;;;;;9.70;1.40;;;18.40;99.90;;;;;;7301765;19;20223;-89
2023/11/01 10:32:56;;;;;;;9.10;1.30;;;18.20;99.90;;;;;;7285752;19;20192;-89
2023/11/01 10:35:22;;;;;;;8.07;1.30;;;18.20;99.90;;;;;;7262872;19;20216;-90
2023/11/01 10:37:58;;;;;;;8.27;1.40;;;18.30;99.90;;;;;;7306089;19;20265;-87
2023/11/01 10:40:27;;;;;;;8.97;1.77;;;18.50;99.90;;;;;;7261544;19;20196;-88
2023/11/01 10:42:56;;;;;;;7.17;1.20;;;18.70;99.90;;;;;;7282796;19;20736;-88
2023/11/01 10:45:22;;;;;;;7.07;1.13;;;18.30;99.90;;;;;;7286207;19;20224;-89
2023/11/01 10:47:49;;;;;;;7.57;1.47;;;18.20;99.90;;;;;;7305892;19;20188;-89
2023/11/01 10:50:15;;;;;;;6.93;1.40;;;18.00;99.90;;;;;;7287025;19;20185;-88
2023/11/01 10:52:43;;;;;;;6.47;1.30;;;17.60;99.90;;;;;;7281848;19;20235;-89
2023/11/01 10:55:10;;;;;;;5.63;1.03;;;17.20;99.90;;;;;;7284478;19;20191;-88
2023/11/01 10:57:37;;;;;;;6.63;1.03;;;17.10;99.90;;;;;;7282978;19;20254;-89
2023/11/01 11:00:12;;;;;;;6.37;1.23;;;17.40;99.90;;;;;;7284479;19;20275;-88
2023/11/01 11:02:51;;;;;;;6.53;0.90;;;17.40;99.90;;;;;;7283437;19;20196;-89
2023/11/01 11:05:27;;;;;;;10.03;1.30;;;17.30;99.90;;;;;;7286232;19;20185;-89
2023/11/01 11:07:56;;;;;;;7.93;1.30;;;17.50;99.90;;;;;;7263018;19;20186;-89
2023/11/01 11:10:39;;;;;;;9.43;1.47;;;17.70;99.90;;;;;;7283215;19;20216;-89
2023/11/01 11:13:16;;;;;;;8.33;1.67;;;17.70;99.90;;;;;;7282753;19;20188;-89
2023/11/01 11:15:50;;;;;;;7.67;1.33;;;17.80;99.90;;;;;;7281668;19;20627;-89
2023/11/01 11:18:21;;;;;;;4.47;0.93;;;18.20;99.90;;;;;;7283578;19;20224;-88
2023/11/01 11:20:51;;;;;;;5.97;1.07;;;19.30;99.90;;;;;;7284162;19;20188;-90
2023/11/01 11:23:19;;;;;;;6.70;1.40;;;20.20;99.90;;;;;;7283171;19;20195;-90
2023/11/01 11:25:53;;;;;;;7.47;1.37;;;20.70;99.90;;;;;;7281225;19;20186;-90
2023/11/01 11:28:22;;;;;;;5.60;1.07;;;20.80;99.90;;;;;;7283144;19;20198;-89
2023/11/01 11:31:03;;;;;;;6.47;1.20;;;19.90;99.90;;;;;;7281921;19;20197;-90
2023/11/01 11:33:35;;;;;;;5.90;1.00;;;19.40;99.90;;;;;;7178476;19;2004431;-89
2023/11/01 11:36:23;;;;;;;7.40;1.30;;;18.90;99.90;;;;;;7282624;19;20195;-89
2023/11/01 11:38:54;;;;;;;6.73;1.37;;;18.50;99.90;;;;;;7278563;19;20196;-89
2023/11/01 11:41:22;;;;;;;6.10;1.00;;;18.50;99.90;;;;;;7281712;19;20664;-89
2023/11/01 11:43:58;;;;;;;7.57;1.20;;;19.00;99.90;;;;;;7282651;19;20192;-89
2023/11/01 11:46:44;;;;;;;7.37;1.50;;;18.70;99.90;;;;;;7258298;19;20188;-90
2023/11/01 11:49:26;;;;;;;6.63;1.10;;;18.40;99.90;;;;;;7281673;19;20224;-90
2023/11/01 11:52:02;;;;;;;6.03;1.20;;;18.20;99.90;;;;;;7266719;19;20190;-90
2023/11/01 11:54:30;;;;;;;7.30;1.53;;;18.00;99.90;;;;;;7282117;19;20636;-90
2023/11/01 11:57:11;;;;;;;5.17;0.80;;;18.10;99.90;;;;;;7280946;19;20255;-90
2023/11/01 11:59:38;;;;;;;6.17;1.03;;;17.80;99.90;;;;;;7283088;19;20187;-90
2023/11/01 12:02:12;;;;;;;5.80;1.00;;;17.70;99.90;;;;;;7283060;19;20191;-91
2023/11/01 12:04:42;;;;;;;8.30;1.50;;;17.70;99.90;;;;;;7282104;19;20191;-90
2023/11/01 12:07:15;;;;;;;8.83;1.17;;;17.40;99.90;;;;;;7282183;19;20194;-90
2023/11/01 12:09:47;;;;;;;7.33;1.23;;;17.20;99.90;;;;;;7283413;19;20999;-90
2023/11/01 12:12:13;;;;;;;8.47;1.60;;;17.30;99.90;;;;;;7288978;19;20191;-90
2023/11/01 12:14:40;;;;;;;8.30;1.40;;;17.50;99.90;;;;;;7287919;19;20191;-89
2023/11/01 12:17:07;;;;;;;7.57;1.20;;;17.50;99.90;;;;;;7287721;19;20186;-90
2023/11/01 12:19:43;;;;;;;7.20;1.40;;;17.70;99.90;;;;;;7280440;19;20186;-90
2023/11/01 12:22:09;;;;;;;8.07;1.20;;;17.60;99.90;;;;;;7287339;19;20217;-89
2023/11/01 12:24:38;;;;;;;7.97;1.30;;;17.20;99.90;;;;;;7290436;19;20186;-90
2023/11/01 12:27:14;;;;;;;7.17;1.00;;;17.10;99.90;;;;;;7287605;19;20185;-90
2023/11/01 12:29:45;;;;;;;7.20;1.10;;;17.00;99.90;;;;;;7286857;19;20197;-90
2023/11/01 12:32:15;;;;;;;6.53;1.30;;;16.90;99.90;;;;;;7287937;19;20223;-89
2023/11/01 12:34:50;;;;;;;7.70;1.23;;;16.60;99.90;;;;;;7287010;19;20222;-91
2023/11/01 12:37:20;;;;;;;8.47;1.33;;;16.50;99.90;;;;;;7289374;19;20184;-90